sensor_id;sensor_type;location;lat;lon;timestamp;P1;durP1;ratioP1;P2;durP2;ratioP2
15899;SDS011;8048;50.644;6.184;2022-10-31T00:00:49;11.23;;;4.53;;
15899;SDS011;8048;50.644;6.184;2022-10-31T00:03:15;5.60;;;3.70;;
15899;SDS011;8048;50.644;6.184;2022-10-31T00:05:46;7.40;;;5.80;;
15899;SDS011;8048;50.644;6.184;2022-10-31T00:08:12;10.83;;;5.53;;
15899;SDS011;8048;50.644;6.184;2022-10-31T00:10:39;5.73;;;5.10;;
15899;SDS011;8048;50.644;6.184;2022-10-31T00:13:05;4.70;;;3.67;;
15899;SDS011;8048;50.644;6.184;2022-10-31T00:15:32;4.70;;;4.40;;
15899;SDS011;8048;50.644;6.184;2022-10-31T00:17:59;4.90;;;4.50;;
15899;SDS011;8048;50.644;6.184;2022-10-31T00:20:24;7.10;;;5.20;;
15899;SDS011;8048;50.644;6.184;2022-10-31T00:22:50;9.80;;;6.80;;
15899;SDS011;8048;50.644;6.184;2022-10-31T00:25:15;5.20;;;4.70;;
15899;SDS011;8048;50.644;6.184;2022-10-31T00:27:41;8.43;;;5.10;;
15899;SDS011;8048;50.644;6.184;2022-10-31T00:30:06;13.33;;;5.30;;
15899;SDS011;8048;50.644;6.184;2022-10-31T00:32:32;10.17;;;6.00;;
15899;SDS011;8048;50.644;6.184;2022-10-31T00:34:58;11.60;;;5.73;;
15899;SDS011;8048;50.644;6.184;2022-10-31T00:37:23;5.67;;;5.03;;
15899;SDS011;8048;50.644;6.184;2022-10-31T00:39:49;8.70;;;5.97;;
15899;SDS011;8048;50.644;6.184;2022-10-31T00:42:14;5.07;;;4.00;;
15899;SDS011;8048;50.644;6.184;2022-10-31T00:44:40;5.70;;;4.27;;
15899;SDS011;8048;50.644;6.184;2022-10-31T00:47:06;9.30;;;5.67;;
15899;SDS011;8048;50.644;6.184;2022-10-31T00:49:31;11.90;;;6.40;;
15899;SDS011;8048;50.644;6.184;2022-10-31T00:51:57;8.13;;;6.10;;
15899;SDS011;8048;50.644;6.184;2022-10-31T00:54:22;11.37;;;9.30;;
15899;SDS011;8048;50.644;6.184;2022-10-31T00:56:48;30.83;;;19.83;;
15899;SDS011;8048;50.644;6.184;2022-10-31T00:59:14;73.90;;;48.10;;
15899;SDS011;8048;50.644;6.184;2022-10-31T01:01:40;30.13;;;18.90;;
15899;SDS011;8048;50.644;6.184;2022-10-31T01:04:05;12.60;;;8.23;;
15899;SDS011;8048;50.644;6.184;2022-10-31T01:06:31;7.33;;;4.50;;
15899;SDS011;8048;50.644;6.184;2022-10-31T01:08:56;4.43;;;4.03;;
15899;SDS011;8048;50.644;6.184;2022-10-31T01:11:22;5.00;;;4.50;;
15899;SDS011;8048;50.644;6.184;2022-10-31T01:13:52;6.00;;;4.47;;
15899;SDS011;8048;50.644;6.184;2022-10-31T01:16:19;6.10;;;4.90;;
15899;SDS011;8048;50.644;6.184;2022-10-31T01:18:47;6.67;;;4.80;;
15899;SDS011;8048;50.644;6.184;2022-10-31T01:21:14;10.67;;;6.23;;
15899;SDS011;8048;50.644;6.184;2022-10-31T01:23:42;6.63;;;5.93;;
15899;SDS011;8048;50.644;6.184;2022-10-31T01:26:09;9.13;;;5.53;;
15899;SDS011;8048;50.644;6.184;2022-10-31T01:28:36;4.63;;;4.23;;
15899;SDS011;8048;50.644;6.184;2022-10-31T01:31:04;6.20;;;4.60;;
15899;SDS011;8048;50.644;6.184;2022-10-31T01:33:31;4.87;;;4.13;;
15899;SDS011;8048;50.644;6.184;2022-10-31T01:35:57;4.63;;;4.00;;
15899;SDS011;8048;50.644;6.184;2022-10-31T01:38:23;4.23;;;3.87;;
15899;SDS011;8048;50.644;6.184;2022-10-31T01:40:49;4.77;;;3.80;;
15899;SDS011;8048;50.644;6.184;2022-10-31T01:43:15;6.17;;;4.03;;
15899;SDS011;8048;50.644;6.184;2022-10-31T01:45:41;3.20;;;3.00;;
15899;SDS011;8048;50.644;6.184;2022-10-31T01:48:15;4.30;;;3.53;;
15899;SDS011;8048;50.644;6.184;2022-10-31T01:50:44;6.17;;;4.30;;
15899;SDS011;8048;50.644;6.184;2022-10-31T01:53:13;4.63;;;4.20;;
15899;SDS011;8048;50.644;6.184;2022-10-31T01:55:41;4.43;;;4.03;;
15899;SDS011;8048;50.644;6.184;2022-10-31T01:58:16;4.10;;;3.80;;
15899;SDS011;8048;50.644;6.184;2022-10-31T02:00:48;4.80;;;3.40;;
15899;SDS011;8048;50.644;6.184;2022-10-31T02:03:16;4.53;;;3.90;;
15899;SDS011;8048;50.644;6.184;2022-10-31T02:05:45;4.33;;;4.03;;
15899;SDS011;8048;50.644;6.184;2022-10-31T02:08:18;5.07;;;3.60;;
15899;SDS011;8048;50.644;6.184;2022-10-31T02:10:50;7.03;;;4.27;;
15899;SDS011;8048;50.644;6.184;2022-10-31T02:13:15;3.80;;;3.43;;
15899;SDS011;8048;50.644;6.184;2022-10-31T02:15:42;5.50;;;5.00;;
15899;SDS011;8048;50.644;6.184;2022-10-31T02:18:09;3.57;;;3.30;;
15899;SDS011;8048;50.644;6.184;2022-10-31T02:20:38;4.30;;;3.97;;
15899;SDS011;8048;50.644;6.184;2022-10-31T02:26:43;4.33;;;3.73;;
15899;SDS011;8048;50.644;6.184;2022-10-31T02:29:27;4.90;;;4.37;;
15899;SDS011;8048;50.644;6.184;2022-10-31T02:37:19;5.30;;;4.00;;
15899;SDS011;8048;50.644;6.184;2022-10-31T02:42:41;6.23;;;5.50;;
15899;SDS011;8048;50.644;6.184;2022-10-31T02:48:05;10.23;;;7.10;;
15899;SDS011;8048;50.644;6.184;2022-10-31T02:50:36;7.67;;;6.97;;
15899;SDS011;8048;50.644;6.184;2022-10-31T02:53:06;9.50;;;6.30;;
15899;SDS011;8048;50.644;6.184;2022-10-31T02:58:01;5.43;;;4.83;;
15899;SDS011;8048;50.644;6.184;2022-10-31T03:00:34;5.93;;;4.73;;
15899;SDS011;8048;50.644;6.184;2022-10-31T03:03:23;5.67;;;5.17;;
15899;SDS011;8048;50.644;6.184;2022-10-31T03:11:34;8.30;;;7.07;;
15899;SDS011;8048;50.644;6.184;2022-10-31T03:14:19;8.53;;;7.00;;
15899;SDS011;8048;50.644;6.184;2022-10-31T03:16:49;8.33;;;6.53;;
15899;SDS011;8048;50.644;6.184;2022-10-31T03:21:45;21.00;;;11.57;;
15899;SDS011;8048;50.644;6.184;2022-10-31T03:24:17;12.77;;;9.60;;
15899;SDS011;8048;50.644;6.184;2022-10-31T03:26:45;13.20;;;11.30;;
15899;SDS011;8048;50.644;6.184;2022-10-31T03:29:15;21.17;;;14.93;;
15899;SDS011;8048;50.644;6.184;2022-10-31T03:31:47;15.43;;;13.07;;
15899;SDS011;8048;50.644;6.184;2022-10-31T03:34:18;20.13;;;14.47;;
15899;SDS011;8048;50.644;6.184;2022-10-31T03:36:44;19.67;;;12.73;;
15899;SDS011;8048;50.644;6.184;2022-10-31T03:39:15;16.20;;;13.07;;
15899;SDS011;8048;50.644;6.184;2022-10-31T03:41:45;18.97;;;13.20;;
15899;SDS011;8048;50.644;6.184;2022-10-31T03:44:24;19.97;;;13.60;;
15899;SDS011;8048;50.644;6.184;2022-10-31T03:46:52;20.00;;;13.07;;
15899;SDS011;8048;50.644;6.184;2022-10-31T03:49:18;11.20;;;9.23;;
15899;SDS011;8048;50.644;6.184;2022-10-31T03:56:50;11.37;;;9.80;;
15899;SDS011;8048;50.644;6.184;2022-10-31T03:59:18;10.33;;;7.97;;
15899;SDS011;8048;50.644;6.184;2022-10-31T04:01:52;7.73;;;6.93;;
15899;SDS011;8048;50.644;6.184;2022-10-31T04:04:22;9.17;;;7.80;;
15899;SDS011;8048;50.644;6.184;2022-10-31T04:06:49;7.63;;;6.83;;
15899;SDS011;8048;50.644;6.184;2022-10-31T04:09:17;6.80;;;6.30;;
15899;SDS011;8048;50.644;6.184;2022-10-31T04:11:46;6.03;;;5.53;;
15899;SDS011;8048;50.644;6.184;2022-10-31T04:14:16;7.57;;;6.77;;
15899;SDS011;8048;50.644;6.184;2022-10-31T04:16:42;9.10;;;6.10;;
15899;SDS011;8048;50.644;6.184;2022-10-31T04:19:09;7.50;;;6.57;;
15899;SDS011;8048;50.644;6.184;2022-10-31T04:21:36;14.03;;;9.83;;
15899;SDS011;8048;50.644;6.184;2022-10-31T04:24:02;28.00;;;17.50;;
15899;SDS011;8048;50.644;6.184;2022-10-31T04:26:27;30.10;;;21.53;;
15899;SDS011;8048;50.644;6.184;2022-10-31T04:28:53;47.80;;;29.13;;
15899;SDS011;8048;50.644;6.184;2022-10-31T04:31:18;69.83;;;38.90;;
15899;SDS011;8048;50.644;6.184;2022-10-31T04:33:44;34.80;;;23.30;;
15899;SDS011;8048;50.644;6.184;2022-10-31T04:36:10;34.37;;;25.00;;
15899;SDS011;8048;50.644;6.184;2022-10-31T04:38:36;33.53;;;26.20;;
15899;SDS011;8048;50.644;6.184;2022-10-31T04:41:01;46.50;;;30.33;;
15899;SDS011;8048;50.644;6.184;2022-10-31T04:43:27;31.23;;;20.47;;
15899;SDS011;8048;50.644;6.184;2022-10-31T04:45:52;21.20;;;12.33;;
15899;SDS011;8048;50.644;6.184;2022-10-31T04:48:18;17.27;;;12.67;;
15899;SDS011;8048;50.644;6.184;2022-10-31T04:50:43;22.70;;;16.43;;
15899;SDS011;8048;50.644;6.184;2022-10-31T04:53:09;30.87;;;20.70;;
15899;SDS011;8048;50.644;6.184;2022-10-31T04:55:35;25.00;;;19.13;;
15899;SDS011;8048;50.644;6.184;2022-10-31T04:58:01;23.90;;;16.53;;
15899;SDS011;8048;50.644;6.184;2022-10-31T05:00:27;34.47;;;21.83;;
15899;SDS011;8048;50.644;6.184;2022-10-31T05:02:56;36.43;;;26.30;;
15899;SDS011;8048;50.644;6.184;2022-10-31T05:05:27;35.47;;;23.30;;
15899;SDS011;8048;50.644;6.184;2022-10-31T05:07:54;25.50;;;16.27;;
15899;SDS011;8048;50.644;6.184;2022-10-31T05:10:22;24.00;;;16.17;;
15899;SDS011;8048;50.644;6.184;2022-10-31T05:12:53;21.83;;;17.97;;
15899;SDS011;8048;50.644;6.184;2022-10-31T05:15:20;23.47;;;18.60;;
15899;SDS011;8048;50.644;6.184;2022-10-31T05:17:47;29.23;;;19.70;;
15899;SDS011;8048;50.644;6.184;2022-10-31T05:20:14;26.13;;;18.00;;
15899;SDS011;8048;50.644;6.184;2022-10-31T05:22:41;27.33;;;15.40;;
15899;SDS011;8048;50.644;6.184;2022-10-31T05:25:08;29.17;;;15.80;;
15899;SDS011;8048;50.644;6.184;2022-10-31T05:27:34;20.33;;;15.80;;
15899;SDS011;8048;50.644;6.184;2022-10-31T05:29:59;26.00;;;16.87;;
15899;SDS011;8048;50.644;6.184;2022-10-31T05:32:25;23.23;;;15.63;;
15899;SDS011;8048;50.644;6.184;2022-10-31T05:34:50;23.80;;;15.20;;
15899;SDS011;8048;50.644;6.184;2022-10-31T05:37:16;20.17;;;14.73;;
15899;SDS011;8048;50.644;6.184;2022-10-31T05:39:41;24.57;;;12.30;;
15899;SDS011;8048;50.644;6.184;2022-10-31T05:42:07;21.00;;;16.57;;
15899;SDS011;8048;50.644;6.184;2022-10-31T05:44:32;25.43;;;12.90;;
15899;SDS011;8048;50.644;6.184;2022-10-31T05:46:58;21.90;;;14.33;;
15899;SDS011;8048;50.644;6.184;2022-10-31T05:49:23;23.60;;;15.03;;
15899;SDS011;8048;50.644;6.184;2022-10-31T05:51:49;25.13;;;13.47;;
15899;SDS011;8048;50.644;6.184;2022-10-31T05:54:14;19.33;;;14.07;;
15899;SDS011;8048;50.644;6.184;2022-10-31T05:56:40;18.03;;;12.70;;
15899;SDS011;8048;50.644;6.184;2022-10-31T05:59:05;12.80;;;10.33;;
15899;SDS011;8048;50.644;6.184;2022-10-31T06:01:31;13.60;;;10.43;;
15899;SDS011;8048;50.644;6.184;2022-10-31T06:03:56;14.30;;;10.33;;
15899;SDS011;8048;50.644;6.184;2022-10-31T06:06:22;18.23;;;10.10;;
15899;SDS011;8048;50.644;6.184;2022-10-31T06:08:47;11.00;;;7.90;;
15899;SDS011;8048;50.644;6.184;2022-10-31T06:11:13;13.30;;;8.97;;
15899;SDS011;8048;50.644;6.184;2022-10-31T06:13:38;15.77;;;10.90;;
15899;SDS011;8048;50.644;6.184;2022-10-31T06:16:04;20.07;;;9.80;;
15899;SDS011;8048;50.644;6.184;2022-10-31T06:18:29;15.87;;;10.10;;
15899;SDS011;8048;50.644;6.184;2022-10-31T06:20:55;17.43;;;11.60;;
15899;SDS011;8048;50.644;6.184;2022-10-31T06:23:20;18.90;;;12.13;;
15899;SDS011;8048;50.644;6.184;2022-10-31T06:25:49;18.40;;;12.43;;
15899;SDS011;8048;50.644;6.184;2022-10-31T06:28:15;20.00;;;14.03;;
15899;SDS011;8048;50.644;6.184;2022-10-31T06:30:41;18.23;;;12.90;;
15899;SDS011;8048;50.644;6.184;2022-10-31T06:33:06;24.50;;;14.07;;
15899;SDS011;8048;50.644;6.184;2022-10-31T06:35:32;28.13;;;14.70;;
15899;SDS011;8048;50.644;6.184;2022-10-31T06:37:58;27.53;;;12.80;;
15899;SDS011;8048;50.644;6.184;2022-10-31T06:40:23;26.43;;;12.80;;
15899;SDS011;8048;50.644;6.184;2022-10-31T06:42:56;20.23;;;12.90;;
15899;SDS011;8048;50.644;6.184;2022-10-31T06:45:22;20.70;;;12.80;;
15899;SDS011;8048;50.644;6.184;2022-10-31T06:47:52;21.03;;;13.53;;
15899;SDS011;8048;50.644;6.184;2022-10-31T06:50:18;20.87;;;14.00;;
15899;SDS011;8048;50.644;6.184;2022-10-31T06:52:49;16.10;;;11.43;;
15899;SDS011;8048;50.644;6.184;2022-10-31T06:55:16;19.73;;;11.30;;
15899;SDS011;8048;50.644;6.184;2022-10-31T06:57:41;12.70;;;11.17;;
15899;SDS011;8048;50.644;6.184;2022-10-31T07:00:07;16.03;;;10.23;;
15899;SDS011;8048;50.644;6.184;2022-10-31T07:02:33;16.90;;;8.80;;
15899;SDS011;8048;50.644;6.184;2022-10-31T07:04:59;18.40;;;11.17;;
15899;SDS011;8048;50.644;6.184;2022-10-31T07:07:24;15.10;;;10.00;;
15899;SDS011;8048;50.644;6.184;2022-10-31T07:09:49;13.73;;;9.50;;
15899;SDS011;8048;50.644;6.184;2022-10-31T07:12:15;15.90;;;9.40;;
15899;SDS011;8048;50.644;6.184;2022-10-31T07:14:41;10.83;;;8.77;;
15899;SDS011;8048;50.644;6.184;2022-10-31T07:17:07;14.10;;;9.13;;
15899;SDS011;8048;50.644;6.184;2022-10-31T07:19:32;12.30;;;10.30;;
15899;SDS011;8048;50.644;6.184;2022-10-31T07:21:58;20.03;;;10.73;;
15899;SDS011;8048;50.644;6.184;2022-10-31T07:24:23;12.73;;;8.83;;
15899;SDS011;8048;50.644;6.184;2022-10-31T07:26:49;19.50;;;10.50;;
15899;SDS011;8048;50.644;6.184;2022-10-31T07:29:14;21.30;;;11.73;;
15899;SDS011;8048;50.644;6.184;2022-10-31T07:31:40;21.53;;;12.53;;
15899;SDS011;8048;50.644;6.184;2022-10-31T07:34:05;17.90;;;10.33;;
15899;SDS011;8048;50.644;6.184;2022-10-31T07:36:31;19.93;;;11.27;;
15899;SDS011;8048;50.644;6.184;2022-10-31T07:38:56;21.70;;;11.93;;
15899;SDS011;8048;50.644;6.184;2022-10-31T07:41:23;12.47;;;9.60;;
15899;SDS011;8048;50.644;6.184;2022-10-31T07:43:49;18.23;;;10.70;;
15899;SDS011;8048;50.644;6.184;2022-10-31T07:46:14;16.10;;;10.10;;
15899;SDS011;8048;50.644;6.184;2022-10-31T07:48:40;15.97;;;9.60;;
15899;SDS011;8048;50.644;6.184;2022-10-31T07:51:06;15.17;;;9.37;;
15899;SDS011;8048;50.644;6.184;2022-10-31T07:53:31;17.80;;;10.30;;
15899;SDS011;8048;50.644;6.184;2022-10-31T07:55:57;13.77;;;10.57;;
15899;SDS011;8048;50.644;6.184;2022-10-31T07:58:22;15.03;;;9.83;;
15899;SDS011;8048;50.644;6.184;2022-10-31T08:00:49;12.43;;;9.23;;
15899;SDS011;8048;50.644;6.184;2022-10-31T08:03:17;12.63;;;8.50;;
15899;SDS011;8048;50.644;6.184;2022-10-31T08:05:44;11.80;;;8.87;;
15899;SDS011;8048;50.644;6.184;2022-10-31T08:08:11;14.80;;;9.20;;
15899;SDS011;8048;50.644;6.184;2022-10-31T08:10:38;18.10;;;10.73;;
15899;SDS011;8048;50.644;6.184;2022-10-31T08:13:06;10.17;;;7.10;;
15899;SDS011;8048;50.644;6.184;2022-10-31T08:15:33;12.30;;;7.90;;
15899;SDS011;8048;50.644;6.184;2022-10-31T08:18:02;16.20;;;9.10;;
15899;SDS011;8048;50.644;6.184;2022-10-31T08:20:28;16.40;;;8.73;;
15899;SDS011;8048;50.644;6.184;2022-10-31T08:22:57;9.07;;;7.70;;
15899;SDS011;8048;50.644;6.184;2022-10-31T08:25:28;15.53;;;8.33;;
15899;SDS011;8048;50.644;6.184;2022-10-31T08:27:55;16.13;;;7.17;;
15899;SDS011;8048;50.644;6.184;2022-10-31T08:30:21;9.37;;;7.57;;
15899;SDS011;8048;50.644;6.184;2022-10-31T08:35:36;9.40;;;7.47;;
15899;SDS011;8048;50.644;6.184;2022-10-31T08:38:03;12.00;;;7.23;;
15899;SDS011;8048;50.644;6.184;2022-10-31T08:40:29;13.30;;;7.10;;
15899;SDS011;8048;50.644;6.184;2022-10-31T08:42:56;11.83;;;7.00;;
15899;SDS011;8048;50.644;6.184;2022-10-31T08:45:41;14.83;;;6.93;;
15899;SDS011;8048;50.644;6.184;2022-10-31T08:48:11;7.00;;;5.77;;
15899;SDS011;8048;50.644;6.184;2022-10-31T08:50:38;13.33;;;7.43;;
15899;SDS011;8048;50.644;6.184;2022-10-31T08:53:05;7.30;;;6.60;;
15899;SDS011;8048;50.644;6.184;2022-10-31T08:55:36;6.30;;;5.70;;
15899;SDS011;8048;50.644;6.184;2022-10-31T08:58:03;11.33;;;6.13;;
15899;SDS011;8048;50.644;6.184;2022-10-31T09:00:31;8.60;;;6.37;;
15899;SDS011;8048;50.644;6.184;2022-10-31T09:02:57;8.20;;;7.10;;
15899;SDS011;8048;50.644;6.184;2022-10-31T09:05:24;7.20;;;6.00;;
15899;SDS011;8048;50.644;6.184;2022-10-31T09:07:50;6.17;;;5.20;;
15899;SDS011;8048;50.644;6.184;2022-10-31T09:10:19;6.60;;;4.87;;
15899;SDS011;8048;50.644;6.184;2022-10-31T09:12:45;10.10;;;6.37;;
15899;SDS011;8048;50.644;6.184;2022-10-31T09:15:10;6.60;;;5.67;;
15899;SDS011;8048;50.644;6.184;2022-10-31T09:17:36;8.53;;;5.23;;
15899;SDS011;8048;50.644;6.184;2022-10-31T09:20:01;6.67;;;4.97;;
15899;SDS011;8048;50.644;6.184;2022-10-31T09:22:27;9.60;;;5.50;;
15899;SDS011;8048;50.644;6.184;2022-10-31T09:24:52;5.93;;;4.67;;
15899;SDS011;8048;50.644;6.184;2022-10-31T09:27:18;6.70;;;5.10;;
15899;SDS011;8048;50.644;6.184;2022-10-31T09:29:43;7.77;;;5.37;;
15899;SDS011;8048;50.644;6.184;2022-10-31T09:32:09;7.50;;;5.23;;
15899;SDS011;8048;50.644;6.184;2022-10-31T09:34:35;9.23;;;5.83;;
15899;SDS011;8048;50.644;6.184;2022-10-31T09:37:00;5.70;;;4.40;;
15899;SDS011;8048;50.644;6.184;2022-10-31T09:39:26;8.67;;;8.00;;
15899;SDS011;8048;50.644;6.184;2022-10-31T09:44:52;7.83;;;4.90;;
15899;SDS011;8048;50.644;6.184;2022-10-31T09:50:22;6.50;;;4.90;;
15899;SDS011;8048;50.644;6.184;2022-10-31T09:52:54;5.87;;;5.37;;
15899;SDS011;8048;50.644;6.184;2022-10-31T09:55:44;5.33;;;4.73;;
15899;SDS011;8048;50.644;6.184;2022-10-31T09:58:16;6.23;;;5.63;;
15899;SDS011;8048;50.644;6.184;2022-10-31T10:00:45;8.47;;;5.83;;
15899;SDS011;8048;50.644;6.184;2022-10-31T10:08:35;6.10;;;5.07;;
15899;SDS011;8048;50.644;6.184;2022-10-31T10:13:44;7.80;;;4.97;;
15899;SDS011;8048;50.644;6.184;2022-10-31T10:19:15;5.53;;;4.60;;
15899;SDS011;8048;50.644;6.184;2022-10-31T10:24:27;5.33;;;3.97;;
15899;SDS011;8048;50.644;6.184;2022-10-31T10:29:49;6.67;;;5.00;;
15899;SDS011;8048;50.644;6.184;2022-10-31T10:32:24;5.90;;;5.17;;
15899;SDS011;8048;50.644;6.184;2022-10-31T10:35:03;6.53;;;4.87;;
15899;SDS011;8048;50.644;6.184;2022-10-31T10:37:40;7.53;;;5.30;;
15899;SDS011;8048;50.644;6.184;2022-10-31T10:40:11;5.33;;;4.30;;
15899;SDS011;8048;50.644;6.184;2022-10-31T10:42:42;13.83;;;6.63;;
15899;SDS011;8048;50.644;6.184;2022-10-31T10:45:33;5.43;;;4.93;;
15899;SDS011;8048;50.644;6.184;2022-10-31T10:48:30;7.37;;;4.30;;
15899;SDS011;8048;50.644;6.184;2022-10-31T10:51:20;5.90;;;5.40;;
15899;SDS011;8048;50.644;6.184;2022-10-31T10:53:53;9.27;;;6.23;;
15899;SDS011;8048;50.644;6.184;2022-10-31T10:56:55;9.17;;;4.83;;
15899;SDS011;8048;50.644;6.184;2022-10-31T10:59:28;9.60;;;4.20;;
15899;SDS011;8048;50.644;6.184;2022-10-31T11:01:55;5.53;;;4.70;;
15899;SDS011;8048;50.644;6.184;2022-10-31T11:04:31;7.67;;;4.63;;
15899;SDS011;8048;50.644;6.184;2022-10-31T11:07:05;5.27;;;4.70;;
15899;SDS011;8048;50.644;6.184;2022-10-31T11:09:33;8.30;;;4.73;;
15899;SDS011;8048;50.644;6.184;2022-10-31T11:12:00;5.23;;;4.10;;
15899;SDS011;8048;50.644;6.184;2022-10-31T11:14:36;6.50;;;5.03;;
15899;SDS011;8048;50.644;6.184;2022-10-31T11:17:17;4.20;;;3.80;;
15899;SDS011;8048;50.644;6.184;2022-10-31T11:22:42;6.70;;;5.07;;
15899;SDS011;8048;50.644;6.184;2022-10-31T11:27:44;5.20;;;4.23;;
15899;SDS011;8048;50.644;6.184;2022-10-31T11:30:11;8.17;;;7.37;;
15899;SDS011;8048;50.644;6.184;2022-10-31T11:32:40;10.07;;;4.53;;
15899;SDS011;8048;50.644;6.184;2022-10-31T11:35:18;6.37;;;5.90;;
15899;SDS011;8048;50.644;6.184;2022-10-31T11:37:47;10.17;;;4.20;;
15899;SDS011;8048;50.644;6.184;2022-10-31T11:40:19;5.80;;;4.40;;
15899;SDS011;8048;50.644;6.184;2022-10-31T11:42:46;5.47;;;4.27;;
15899;SDS011;8048;50.644;6.184;2022-10-31T11:45:15;3.40;;;3.10;;
15899;SDS011;8048;50.644;6.184;2022-10-31T11:47:52;6.97;;;4.80;;
15899;SDS011;8048;50.644;6.184;2022-10-31T11:50:24;7.40;;;4.43;;
15899;SDS011;8048;50.644;6.184;2022-10-31T11:53:02;5.93;;;4.67;;
15899;SDS011;8048;50.644;6.184;2022-10-31T11:55:38;3.83;;;3.33;;
15899;SDS011;8048;50.644;6.184;2022-10-31T11:58:04;6.30;;;3.87;;
15899;SDS011;8048;50.644;6.184;2022-10-31T12:00:49;5.47;;;3.33;;
15899;SDS011;8048;50.644;6.184;2022-10-31T12:05:58;5.67;;;5.20;;
15899;SDS011;8048;50.644;6.184;2022-10-31T12:08:36;6.90;;;4.07;;
15899;SDS011;8048;50.644;6.184;2022-10-31T12:14:08;7.30;;;4.00;;
15899;SDS011;8048;50.644;6.184;2022-10-31T12:16:59;6.27;;;4.43;;
15899;SDS011;8048;50.644;6.184;2022-10-31T12:27:41;5.63;;;3.17;;
15899;SDS011;8048;50.644;6.184;2022-10-31T12:30:27;4.37;;;4.00;;
15899;SDS011;8048;50.644;6.184;2022-10-31T12:33:17;3.10;;;2.90;;
15899;SDS011;8048;50.644;6.184;2022-10-31T12:38:42;3.10;;;2.80;;
15899;SDS011;8048;50.644;6.184;2022-10-31T12:47:20;3.77;;;3.47;;
15899;SDS011;8048;50.644;6.184;2022-10-31T12:50:16;4.50;;;4.10;;
15899;SDS011;8048;50.644;6.184;2022-10-31T12:55:53;8.37;;;3.57;;
15899;SDS011;8048;50.644;6.184;2022-10-31T12:58:22;3.80;;;3.40;;
15899;SDS011;8048;50.644;6.184;2022-10-31T13:04:03;4.67;;;3.83;;
15899;SDS011;8048;50.644;6.184;2022-10-31T13:06:42;3.60;;;3.30;;
15899;SDS011;8048;50.644;6.184;2022-10-31T13:09:19;4.23;;;3.80;;
15899;SDS011;8048;50.644;6.184;2022-10-31T13:11:54;5.07;;;3.60;;
15899;SDS011;8048;50.644;6.184;2022-10-31T13:17:20;5.87;;;3.80;;
15899;SDS011;8048;50.644;6.184;2022-10-31T13:19:51;5.07;;;3.60;;
15899;SDS011;8048;50.644;6.184;2022-10-31T13:22:22;9.53;;;3.50;;
15899;SDS011;8048;50.644;6.184;2022-10-31T13:27:48;5.03;;;3.57;;
15899;SDS011;8048;50.644;6.184;2022-10-31T13:30:22;3.83;;;3.40;;
15899;SDS011;8048;50.644;6.184;2022-10-31T13:35:18;4.33;;;3.17;;
15899;SDS011;8048;50.644;6.184;2022-10-31T13:40:37;5.80;;;3.57;;
15899;SDS011;8048;50.644;6.184;2022-10-31T13:43:17;11.20;;;3.37;;
15899;SDS011;8048;50.644;6.184;2022-10-31T13:46:20;3.90;;;3.50;;
15899;SDS011;8048;50.644;6.184;2022-10-31T13:51:53;4.10;;;3.30;;
15899;SDS011;8048;50.644;6.184;2022-10-31T13:54:39;2.70;;;2.50;;
15899;SDS011;8048;50.644;6.184;2022-10-31T13:57:17;4.97;;;3.83;;
15899;SDS011;8048;50.644;6.184;2022-10-31T13:59:46;6.37;;;3.63;;
15899;SDS011;8048;50.644;6.184;2022-10-31T14:02:27;6.20;;;3.97;;
15899;SDS011;8048;50.644;6.184;2022-10-31T14:04:59;6.03;;;3.63;;
15899;SDS011;8048;50.644;6.184;2022-10-31T14:07:27;4.20;;;3.80;;
15899;SDS011;8048;50.644;6.184;2022-10-31T14:09:55;8.70;;;3.50;;
15899;SDS011;8048;50.644;6.184;2022-10-31T14:12:34;4.50;;;4.10;;
15899;SDS011;8048;50.644;6.184;2022-10-31T14:15:03;4.43;;;2.93;;
15899;SDS011;8048;50.644;6.184;2022-10-31T14:17:40;3.43;;;3.13;;
15899;SDS011;8048;50.644;6.184;2022-10-31T14:22:44;5.27;;;4.17;;
15899;SDS011;8048;50.644;6.184;2022-10-31T14:25:30;4.47;;;3.07;;
15899;SDS011;8048;50.644;6.184;2022-10-31T14:27:59;11.43;;;3.70;;
15899;SDS011;8048;50.644;6.184;2022-10-31T14:30:27;5.43;;;3.90;;
15899;SDS011;8048;50.644;6.184;2022-10-31T14:32:55;7.00;;;3.67;;
15899;SDS011;8048;50.644;6.184;2022-10-31T14:35:42;7.60;;;4.10;;
15899;SDS011;8048;50.644;6.184;2022-10-31T14:38:37;10.93;;;3.87;;
15899;SDS011;8048;50.644;6.184;2022-10-31T14:49:11;3.83;;;2.90;;
15899;SDS011;8048;50.644;6.184;2022-10-31T14:51:56;4.50;;;3.30;;
15899;SDS011;8048;50.644;6.184;2022-10-31T14:54:29;3.80;;;3.50;;
15899;SDS011;8048;50.644;6.184;2022-10-31T14:57:07;5.23;;;3.20;;
15899;SDS011;8048;50.644;6.184;2022-10-31T14:59:42;5.03;;;2.97;;
15899;SDS011;8048;50.644;6.184;2022-10-31T15:02:19;4.07;;;3.40;;
15899;SDS011;8048;50.644;6.184;2022-10-31T15:04:51;5.23;;;3.53;;
15899;SDS011;8048;50.644;6.184;2022-10-31T15:07:22;4.10;;;3.20;;
15899;SDS011;8048;50.644;6.184;2022-10-31T15:09:59;10.50;;;3.57;;
15899;SDS011;8048;50.644;6.184;2022-10-31T15:12:31;4.13;;;2.67;;
15899;SDS011;8048;50.644;6.184;2022-10-31T15:15:10;4.67;;;2.63;;
15899;SDS011;8048;50.644;6.184;2022-10-31T15:17:41;3.10;;;2.90;;
15899;SDS011;8048;50.644;6.184;2022-10-31T15:20:19;4.57;;;3.87;;
15899;SDS011;8048;50.644;6.184;2022-10-31T15:22:48;5.80;;;2.70;;
15899;SDS011;8048;50.644;6.184;2022-10-31T15:25:21;2.97;;;2.67;;
15899;SDS011;8048;50.644;6.184;2022-10-31T15:27:48;3.53;;;2.77;;
15899;SDS011;8048;50.644;6.184;2022-10-31T15:30:16;2.93;;;2.73;;
15899;SDS011;8048;50.644;6.184;2022-10-31T15:32:49;3.30;;;3.00;;
15899;SDS011;8048;50.644;6.184;2022-10-31T15:35:33;6.37;;;3.50;;
15899;SDS011;8048;50.644;6.184;2022-10-31T15:37:59;4.23;;;2.73;;
15899;SDS011;8048;50.644;6.184;2022-10-31T15:40:26;3.33;;;2.20;;
15899;SDS011;8048;50.644;6.184;2022-10-31T15:42:54;6.57;;;3.30;;
15899;SDS011;8048;50.644;6.184;2022-10-31T15:45:23;3.47;;;3.17;;
15899;SDS011;8048;50.644;6.184;2022-10-31T15:47:55;4.77;;;3.90;;
15899;SDS011;8048;50.644;6.184;2022-10-31T15:50:37;9.20;;;3.60;;
15899;SDS011;8048;50.644;6.184;2022-10-31T15:53:05;5.27;;;3.50;;
15899;SDS011;8048;50.644;6.184;2022-10-31T15:55:48;7.87;;;4.73;;
15899;SDS011;8048;50.644;6.184;2022-10-31T15:58:22;3.40;;;3.10;;
15899;SDS011;8048;50.644;6.184;2022-10-31T16:01:05;3.60;;;3.27;;
15899;SDS011;8048;50.644;6.184;2022-10-31T16:03:43;5.20;;;3.40;;
15899;SDS011;8048;50.644;6.184;2022-10-31T16:06:19;4.23;;;3.60;;
15899;SDS011;8048;50.644;6.184;2022-10-31T16:08:47;3.87;;;3.53;;
15899;SDS011;8048;50.644;6.184;2022-10-31T16:11:21;3.80;;;3.50;;
15899;SDS011;8048;50.644;6.184;2022-10-31T16:16:44;7.73;;;4.30;;
15899;SDS011;8048;50.644;6.184;2022-10-31T16:19:30;4.07;;;3.67;;
15899;SDS011;8048;50.644;6.184;2022-10-31T16:22:02;4.70;;;3.37;;
15899;SDS011;8048;50.644;6.184;2022-10-31T16:24:31;8.03;;;3.37;;
15899;SDS011;8048;50.644;6.184;2022-10-31T16:27:06;9.07;;;4.10;;
15899;SDS011;8048;50.644;6.184;2022-10-31T16:29:51;6.83;;;3.93;;
15899;SDS011;8048;50.644;6.184;2022-10-31T16:37:39;4.83;;;3.33;;
15899;SDS011;8048;50.644;6.184;2022-10-31T16:40:05;3.57;;;2.70;;
15899;SDS011;8048;50.644;6.184;2022-10-31T16:42:31;8.00;;;3.63;;
15899;SDS011;8048;50.644;6.184;2022-10-31T16:44:58;9.47;;;4.30;;
15899;SDS011;8048;50.644;6.184;2022-10-31T16:47:24;3.20;;;3.00;;
15899;SDS011;8048;50.644;6.184;2022-10-31T16:49:50;5.17;;;3.17;;
15899;SDS011;8048;50.644;6.184;2022-10-31T16:52:18;4.10;;;3.70;;
15899;SDS011;8048;50.644;6.184;2022-10-31T16:54:44;5.37;;;3.80;;
15899;SDS011;8048;50.644;6.184;2022-10-31T16:57:17;4.90;;;3.13;;
15899;SDS011;8048;50.644;6.184;2022-10-31T16:59:46;3.30;;;3.00;;
15899;SDS011;8048;50.644;6.184;2022-10-31T17:02:15;4.97;;;3.73;;
15899;SDS011;8048;50.644;6.184;2022-10-31T17:04:41;3.67;;;3.27;;
15899;SDS011;8048;50.644;6.184;2022-10-31T17:07:06;5.00;;;4.53;;
15899;SDS011;8048;50.644;6.184;2022-10-31T17:09:32;4.70;;;3.40;;
15899;SDS011;8048;50.644;6.184;2022-10-31T17:11:58;4.80;;;4.40;;